Time;durP1;ratioP1;P1;durP2;ratioP2;P2;SDS_P1;SDS_P2;PMS_P1;PMS_P2;Temp;Humidity;BMP_temperature;BMP_pressure;BME280_temperature;BME280_humidity;BME280_pressure;Samples;Min_cycle;Max_cycle;Signal;HPM_P1;HPM_P2
2023/08/30 00:01:41;;;;;;;13.52;9.25;;;;;;;29.29;70.63;100657.78;4909766;28;70385;-35
2023/08/30 00:04:11;;;;;;;14.70;9.88;;;;;;;29.43;73.16;100668.53;4918710;28;66390;-37
2023/08/30 00:06:41;;;;;;;17.38;9.50;;;;;;;29.52;72.55;100678.03;4898713;28;69156;-36
2023/08/30 00:09:12;;;;;;;10.38;9.38;;;;;;;29.62;73.00;100683.81;4897324;28;65921;-36
2023/08/30 00:11:42;;;;;;;15.88;12.13;;;;;;;29.89;71.85;100678.28;4912461;28;69983;-36
2023/08/30 00:14:12;;;;;;;46.78;25.70;;;;;;;29.95;72.35;100677.38;4920700;28;66092;-34
2023/08/30 00:16:42;;;;;;;72.95;40.35;;;;;;;30.11;72.02;100693.09;4911915;28;70129;-35
2023/08/30 00:19:12;;;;;;;72.60;40.97;;;;;;;29.89;73.60;100659.34;4917182;28;65818;-34
2023/08/30 00:21:44;;;;;;;62.25;33.17;;;;;;;30.09;74.71;100689.78;4923221;28;69075;-34
2023/08/30 00:24:14;;;;;;;47.63;29.70;;;;;;;30.17;74.75;100692.22;4922640;28;65845;-33
2023/08/30 00:26:44;;;;;;;43.75;25.23;;;;;;;30.21;74.39;100693.44;4920045;28;70196;-33
2023/08/30 00:29:15;;;;;;;41.42;25.48;;;;;;;30.20;74.52;100697.19;4924457;28;65967;-34
2023/08/30 00:31:45;;;;;;;41.10;25.27;;;;;;;30.30;74.50;100707.53;4906514;28;70616;-32
2023/08/30 00:34:15;;;;;;;45.53;26.05;;;;;;;30.34;74.47;100705.22;4925851;28;65676;-35
2023/08/30 00:36:45;;;;;;;35.10;24.98;;;;;;;30.24;74.35;100700.31;4888727;28;69431;-33
2023/08/30 00:39:15;;;;;;;35.38;23.65;;;;;;;30.39;74.13;100721.63;4924798;28;66136;-35
2023/08/30 00:41:46;;;;;;;35.42;24.08;;;;;;;30.42;74.67;100724.75;4890784;28;69162;-33
2023/08/30 00:44:16;;;;;;;39.72;25.60;;;;;;;30.45;74.92;100731.56;4910378;28;66100;-33
2023/08/30 00:46:46;;;;;;;36.33;25.27;;;;;;;30.40;74.94;100712.47;4890708;28;70223;-39
2023/08/30 00:49:16;;;;;;;33.45;25.88;;;;;;;30.45;74.59;100709.91;4916180;28;66705;-39
2023/08/30 00:51:47;;;;;;;33.70;24.77;;;;;;;30.54;74.60;100724.84;4901010;28;70107;-40
2023/08/30 00:54:18;;;;;;;36.05;26.38;;;;;;;30.51;74.18;100709.03;4902432;28;66679;-39
2023/08/30 00:56:50;;;;;;;40.47;26.60;;;;;;;30.60;74.06;100723.94;4909144;28;70533;-40
2023/08/30 00:59:21;;;;;;;31.70;22.63;;;;;;;30.49;72.34;100727.38;4891079;28;66880;-37
2023/08/30 01:01:53;;;;;;;24.40;19.87;;;;;;;30.45;71.84;100723.44;4891104;28;70345;-37
2023/08/30 01:04:23;;;;;;;26.27;20.35;;;;;;;30.46;71.06;100727.81;4913024;28;66719;-37
2023/08/30 01:06:54;;;;;;;22.50;18.90;;;;;;;30.50;70.78;100723.59;4905170;28;70146;-38
2023/08/30 01:09:25;;;;;;;21.60;19.30;;;;;;;30.45;70.68;100718.88;4910126;28;66308;-38
2023/08/30 01:12:28;;;;;;;23.87;18.97;;;;;;;30.45;71.36;100731.56;4915355;28;70770;-38
2023/08/30 01:15:10;;;;;;;19.70;17.60;;;;;;;30.17;70.63;100669.72;4903574;28;66423;-38
2023/08/30 01:17:43;;;;;;;20.77;18.48;;;;;;;29.97;69.52;100618.50;4896966;28;70074;-38
2023/08/30 01:20:20;;;;;;;18.15;16.38;;;;;;;30.54;69.74;100708.59;4918601;28;66244;-39
2023/08/30 01:22:58;;;;;;;17.92;16.05;;;;;;;30.65;69.88;100724.13;4912604;28;70216;-39
2023/08/30 01:25:55;;;;;;;18.35;16.27;;;;;;;30.15;70.05;100656.44;4908927;28;66370;-37
2023/08/30 01:28:30;;;;;;;18.00;16.13;;;;;;;30.34;69.17;100670.03;4915007;28;70592;-38
2023/08/30 01:31:00;;;;;;;16.75;15.13;;;;;;;30.70;69.45;100729.69;4906767;28;66463;-38
2023/08/30 01:33:31;;;;;;;17.05;14.18;;;;;;;30.65;69.15;100721.41;4902146;28;70013;-37
2023/08/30 01:36:03;;;;;;;18.00;15.37;;;;;;;30.78;69.07;100741.28;4918226;28;66914;-38
2023/08/30 01:38:35;;;;;;;16.08;14.07;;;;;;;30.81;69.42;100746.28;4889842;28;70114;-38
2023/08/30 01:41:05;;;;;;;15.60;13.95;;;;;;;30.82;69.20;100742.53;4917735;28;64917;-38
2023/08/30 01:43:38;;;;;;;17.08;14.65;;;;;;;30.82;68.94;100737.13;4916778;28;69239;-38
2023/08/30 01:46:10;;;;;;;14.85;13.27;;;;;;;30.88;68.36;100747.03;4893946;28;66638;-38
2023/08/30 01:48:41;;;;;;;14.35;13.00;;;;;;;30.50;68.73;100688.41;4892110;28;70846;-38
2023/08/30 01:51:12;;;;;;;14.57;13.07;;;;;;;30.91;68.52;100752.00;4914797;28;65457;-38
2023/08/30 01:53:47;;;;;;;13.85;12.30;;;;;;;30.93;68.13;100750.75;4909453;28;70458;-39
2023/08/30 01:56:17;;;;;;;13.98;12.70;;;;;;;30.95;68.74;100745.09;4915255;28;66740;-39
2023/08/30 01:58:47;;;;;;;12.00;10.98;;;;;;;30.97;68.42;100742.97;4907680;28;69907;-39
2023/08/30 02:01:35;;;;;;;12.57;11.32;;;;;;;31.01;68.07;100735.22;4903602;28;66214;-38
2023/08/30 02:04:06;;;;;;;12.27;11.27;;;;;;;30.98;68.42;100738.38;4894357;28;69909;-38
2023/08/30 02:06:50;;;;;;;12.65;11.45;;;;;;;31.02;68.15;100732.31;4911473;28;66556;-38
2023/08/30 02:09:42;;;;;;;14.15;10.77;;;;;;;30.97;68.50;100728.63;4901527;28;70353;-38
2023/08/30 02:12:16;;;;;;;14.98;11.07;;;;;;;31.08;68.06;100730.59;4909287;28;66873;-38
2023/08/30 02:14:49;;;;;;;14.00;11.07;;;;;;;31.01;67.67;100714.41;4911966;28;70541;-37
2023/08/30 02:17:20;;;;;;;11.68;10.48;;;;;;;31.12;67.39;100727.22;4913074;28;65980;-38
2023/08/30 02:19:53;;;;;;;11.40;10.15;;;;;;;31.15;67.75;100715.91;4892787;28;69988;-39
2023/08/30 02:22:23;;;;;;;10.90;9.90;;;;;;;31.03;67.83;100696.03;4906508;28;65865;-38
2023/08/30 02:24:53;;;;;;;10.63;9.82;;;;;;;31.12;67.21;100702.81;4908531;28;70604;-40
2023/08/30 02:27:23;;;;;;;11.32;10.13;;;;;;;31.22;67.81;100715.81;4914122;28;66204;-42
2023/08/30 02:29:52;;;;;;;10.48;9.63;;;;;;;31.24;67.38;100715.59;4891825;28;69163;-38
2023/08/30 02:32:25;;;;;;;10.48;9.23;;;;;;;31.26;67.39;100718.91;4897654;28;66097;-39
2023/08/30 02:34:57;;;;;;;10.70;9.68;;;;;;;31.22;67.32;100715.00;4899739;28;70348;-39
2023/08/30 02:37:27;;;;;;;10.77;9.85;;;;;;;31.30;67.50;100728.25;4890531;28;66969;-38
2023/08/30 02:39:57;;;;;;;9.48;8.60;;;;;;;31.21;67.27;100707.94;4913738;28;70051;-38
2023/08/30 02:42:27;;;;;;;9.35;8.50;;;;;;;31.31;67.33;100708.22;4903071;28;65467;-38
2023/08/30 02:44:58;;;;;;;9.68;8.88;;;;;;;31.31;67.18;100702.78;4915727;28;69896;-39
2023/08/30 02:47:28;;;;;;;16.52;13.98;;;;;;;31.41;70.45;100713.13;4911441;28;66033;-40
2023/08/30 02:49:58;;;;;;;18.02;16.15;;;;;;;31.40;71.46;100706.91;4909082;28;68986;-40
2023/08/30 02:52:28;;;;;;;22.10;17.27;;;;;;;31.37;73.06;100702.75;4909783;28;64547;-41
2023/08/30 02:54:58;;;;;;;19.77;17.73;;;;;;;31.36;73.26;100711.09;4914428;28;70125;-39
2023/08/30 02:57:29;;;;;;;18.80;16.63;;;;;;;31.37;73.75;100712.75;4892591;28;66010;-39
2023/08/30 02:59:59;;;;;;;17.77;15.90;;;;;;;31.34;73.80;100708.59;4892854;28;70512;-40
2023/08/30 03:02:30;;;;;;;18.15;16.35;;;;;;;31.31;74.19;100697.38;4921156;28;66223;-39
2023/08/30 03:05:00;;;;;;;23.30;15.27;;;;;;;31.36;74.22;100706.50;4920289;28;70365;-39
2023/08/30 03:07:30;;;;;;;21.67;16.63;;;;;;;31.38;74.35;100706.28;4899512;28;67268;-38
2023/08/30 03:10:00;;;;;;;17.15;15.35;;;;;;;31.36;74.03;100703.78;4896807;28;70153;-35
2023/08/30 03:12:32;;;;;;;15.80;14.33;;;;;;;31.35;72.39;100710.25;4876521;29;66156;-37
2023/08/30 03:15:04;;;;;;;15.20;13.70;;;;;;;31.16;70.58;100690.47;4909020;28;70480;-35
2023/08/30 03:17:36;;;;;;;15.75;12.15;;;;;;;31.14;68.62;100716.94;4919378;28;65236;-35
2023/08/30 03:20:07;;;;;;;13.52;12.32;;;;;;;31.02;67.50;100716.06;4908186;28;69508;-35
2023/08/30 03:22:37;;;;;;;14.20;12.02;;;;;;;30.91;65.76;100708.69;4915928;28;65926;-36
2023/08/30 03:25:09;;;;;;;13.77;11.63;;;;;;;30.76;64.55;100705.44;4898656;28;70467;-35
2023/08/30 03:27:40;;;;;;;12.48;11.15;;;;;;;30.71;63.44;100704.25;4921961;28;65946;-37
2023/08/30 03:30:11;;;;;;;10.10;9.27;;;;;;;30.67;62.36;100711.19;4900106;28;70299;-36
2023/08/30 03:32:41;;;;;;;10.32;9.48;;;;;;;30.59;62.06;100706.06;4911930;28;66250;-37
2023/08/30 03:35:11;;;;;;;10.30;9.30;;;;;;;30.50;61.20;100704.66;4918541;28;70210;-35
2023/08/30 03:37:41;;;;;;;9.15;8.35;;;;;;;30.49;60.50;100708.44;4920193;28;66159;-34
2023/08/30 03:40:12;;;;;;;9.52;8.82;;;;;;;30.43;59.30;100698.50;4920900;28;70215;-35
2023/08/30 03:42:44;;;;;;;9.05;7.72;;;;;;;30.38;58.72;100706.44;4900118;28;66081;-34
2023/08/30 03:45:16;;;;;;;;;;;;;;;30.13;58.50;100701.81;4893823;28;69150;-35
2023/08/30 03:47:46;;;;;;;8.85;7.95;;;;;;;30.27;57.55;100708.81;4909265;28;66099;-35
2023/08/30 03:50:16;;;;;;;7.55;7.05;;;;;;;30.27;57.13;100695.28;4907816;28;70771;-35
2023/08/30 03:52:46;;;;;;;8.00;7.25;;;;;;;30.11;57.15;100676.03;4877193;29;66083;-36
2023/08/30 03:55:17;;;;;;;6.63;6.13;;;;;;;30.20;56.29;100690.94;4880790;28;69984;-37
2023/08/30 03:57:48;;;;;;;7.65;6.97;;;;;;;30.13;55.77;100680.19;4898939;28;66970;-36
2023/08/30 04:00:18;;;;;;;6.75;6.15;;;;;;;30.11;54.88;100679.56;4913920;28;69192;-36
2023/08/30 04:02:48;;;;;;;15.85;6.03;;;;;;;30.11;54.67;100686.84;4920297;28;66155;-34
2023/08/30 04:05:18;;;;;;;6.15;5.55;;;;;;;29.95;54.14;100677.38;4921920;28;69938;-36
2023/08/30 04:07:48;;;;;;;6.60;6.10;;;;;;;29.99;53.97;100679.44;4913287;28;66488;-34
2023/08/30 04:10:18;;;;;;;7.78;7.07;;;;;;;30.02;55.73;100683.59;4919540;28;69705;-37
2023/08/30 04:12:48;;;;;;;6.97;6.53;;;;;;;29.99;53.50;100675.91;4915463;28;66700;-36
2023/08/30 04:15:18;;;;;;;7.38;6.57;;;;;;;30.01;53.05;100674.66;4887078;28;70375;-35
2023/08/30 04:17:48;;;;;;;8.70;6.63;;;;;;;30.01;53.24;100665.72;4912674;28;66645;-35
2023/08/30 04:20:18;;;;;;;7.75;7.03;;;;;;;29.96;51.93;100646.59;4904900;28;68975;-38
2023/08/30 04:22:49;;;;;;;7.07;6.68;;;;;;;29.79;52.25;100625.50;4904712;28;66717;-36
2023/08/30 04:25:20;;;;;;;7.35;6.25;;;;;;;29.98;51.92;100660.75;4890486;28;70441;-37
2023/08/30 04:27:54;;;;;;;6.95;6.45;;;;;;;29.96;51.41;100658.25;4899660;28;65161;-37
2023/08/30 04:30:24;;;;;;;19.02;6.25;;;;;;;29.92;52.41;100656.19;4905205;28;69597;-37
2023/08/30 04:32:54;;;;;;;9.95;6.10;;;;;;;29.92;50.83;100672.41;4920155;28;66925;-36
2023/08/30 04:35:24;;;;;;;16.17;5.90;;;;;;;29.93;51.41;100658.69;4904151;28;70024;-36
2023/08/30 04:37:54;;;;;;;6.88;6.15;;;;;;;29.88;50.85;100649.59;4894879;28;65328;-36
2023/08/30 04:40:24;;;;;;;5.82;5.20;;;;;;;29.55;50.41;100600.06;4904166;28;69971;-37
2023/08/30 04:42:55;;;;;;;6.22;5.68;;;;;;;29.83;50.64;100663.75;4905785;28;65347;-37
2023/08/30 04:45:26;;;;;;;6.43;5.60;;;;;;;29.81;50.12;100676.66;4906906;28;70532;-37
2023/08/30 04:47:56;;;;;;;5.50;5.10;;;;;;;29.78;49.96;100672.53;4924997;28;66782;-37
2023/08/30 04:50:28;;;;;;;8.57;5.18;;;;;;;29.75;49.92;100662.13;4912422;28;70088;-37
2023/08/30 04:52:58;;;;;;;5.40;4.90;;;;;;;29.75;49.55;100654.00;4890908;28;65804;-45
2023/08/30 04:55:29;;;;;;;7.10;5.10;;;;;;;29.73;48.96;100653.44;4912925;28;69107;-37
2023/08/30 04:58:01;;;;;;;4.63;4.32;;;;;;;29.70;49.07;100653.00;4889550;28;66585;-37
2023/08/30 05:00:35;;;;;;;4.65;4.25;;;;;;;29.69;48.75;100641.38;4891474;28;70568;-36
2023/08/30 05:03:07;;;;;;;5.15;4.82;;;;;;;29.68;49.27;100639.72;4888218;28;66000;-36
2023/08/30 05:05:38;;;;;;;5.50;5.10;;;;;;;29.64;48.46;100622.28;4909817;28;69700;-36
2023/08/30 05:08:08;;;;;;;4.68;4.38;;;;;;;29.60;48.41;100616.44;4894991;28;66369;-37
2023/08/30 05:10:40;;;;;;;9.23;4.30;;;;;;;29.53;48.23;100593.22;4888695;28;70005;-36
2023/08/30 05:13:10;;;;;;;5.25;4.85;;;;;;;29.59;48.68;100592.38;4907799;28;66479;-36
2023/08/30 05:15:40;;;;;;;4.70;4.35;;;;;;;29.57;47.92;100578.22;4892645;28;70764;-37
2023/08/30 05:18:10;;;;;;;6.55;4.45;;;;;;;29.54;47.65;100557.06;4913637;28;65877;-37
2023/08/30 05:20:41;;;;;;;5.75;4.28;;;;;;;29.52;47.90;100545.63;4905888;28;70214;-37
2023/08/30 05:23:11;;;;;;;6.28;4.30;;;;;;;29.50;47.22;100545.00;4904827;28;65240;-37
2023/08/30 05:25:42;;;;;;;4.40;4.10;;;;;;;29.48;47.62;100525.50;4894145;28;69813;-37
2023/08/30 05:28:12;;;;;;;4.35;4.05;;;;;;;29.47;47.28;100518.44;4892517;28;66239;-37
2023/08/30 05:30:43;;;;;;;4.05;3.78;;;;;;;29.46;46.99;100500.56;4893765;28;71035;-37
2023/08/30 05:33:25;;;;;;;4.10;3.80;;;;;;;29.40;46.90;100486.88;4899156;28;67126;-36
2023/08/30 05:36:05;;;;;;;4.40;4.10;;;;;;;29.39;47.14;100474.44;4906629;28;69768;-37
2023/08/30 05:38:55;;;;;;;4.18;3.80;;;;;;;29.39;47.26;100473.59;4895182;28;66047;-36
2023/08/30 05:41:36;;;;;;;4.28;3.97;;;;;;;29.37;47.35;100475.69;4913874;28;70858;-36
2023/08/30 05:44:07;;;;;;;4.18;3.80;;;;;;;29.31;47.05;100473.84;4919809;28;66678;-36
2023/08/30 05:46:38;;;;;;;6.80;4.22;;;;;;;29.00;46.75;100431.47;4901814;29;70390;-37
2023/08/30 05:49:09;;;;;;;8.07;3.92;;;;;;;29.38;47.73;100505.19;4902886;28;65695;-37
2023/08/30 05:51:39;;;;;;;6.05;4.50;;;;;;;29.34;49.09;100505.84;4912598;28;70462;-36
2023/08/30 05:54:09;;;;;;;4.50;4.20;;;;;;;29.40;48.65;100508.50;4893233;29;66119;-39
2023/08/30 05:56:39;;;;;;;4.68;4.30;;;;;;;29.42;48.98;100504.75;4894458;28;69340;-37
2023/08/30 05:59:09;;;;;;;4.70;4.40;;;;;;;29.41;48.62;100514.72;4910455;28;66784;-37
2023/08/30 06:01:39;;;;;;;6.63;4.32;;;;;;;29.34;48.44;100514.78;4922221;28;70213;-37
2023/08/30 06:04:09;;;;;;;10.35;4.00;;;;;;;29.39;48.61;100514.97;4928160;28;65977;-36
2023/08/30 06:06:39;;;;;;;4.03;3.70;;;;;;;29.42;48.63;100523.66;4921317;28;69602;-37
2023/08/30 06:09:09;;;;;;;4.75;4.35;;;;;;;29.47;49.36;100521.13;4897880;29;65226;-37
2023/08/30 06:11:39;;;;;;;5.03;4.63;;;;;;;29.43;48.77;100517.22;4916194;28;69577;-37
2023/08/30 06:14:09;;;;;;;6.82;4.88;;;;;;;29.39;48.75;100504.16;4922885;28;66150;-37
2023/08/30 06:16:43;;;;;;;5.70;5.18;;;;;;;29.24;48.30;100473.91;4903071;28;70082;-37
2023/08/30 06:19:15;;;;;;;8.23;5.25;;;;;;;29.40;48.16;100484.19;4906853;28;65530;-37
2023/08/30 06:21:45;;;;;;;8.13;5.22;;;;;;;29.40;47.80;100476.06;4919583;28;69875;-37
2023/08/30 06:24:15;;;;;;;7.72;4.80;;;;;;;29.38;48.29;100456.53;4914330;28;66117;-37
2023/08/30 06:26:45;;;;;;;8.55;4.60;;;;;;;29.42;47.60;100451.56;4920665;28;68722;-38
2023/08/30 06:29:15;;;;;;;7.20;5.22;;;;;;;29.42;48.09;100461.50;4923977;28;66168;-36
2023/08/30 06:31:45;;;;;;;6.80;4.97;;;;;;;29.40;47.45;100473.38;4892185;28;69451;-36
2023/08/30 06:34:16;;;;;;;7.13;5.28;;;;;;;29.43;47.96;100492.91;4922391;28;65381;-37
2023/08/30 06:36:46;;;;;;;5.47;5.00;;;;;;;29.42;47.86;100483.13;4917370;28;69768;-37
2023/08/30 06:39:17;;;;;;;5.97;5.35;;;;;;;29.16;48.17;100430.97;4916013;28;65681;-37
2023/08/30 06:41:48;;;;;;;6.03;5.43;;;;;;;29.31;48.07;100444.97;4919298;28;70478;-36
2023/08/30 06:44:18;;;;;;;5.60;5.10;;;;;;;29.40;47.63;100456.34;4896653;28;66053;-36
2023/08/30 06:46:48;;;;;;;5.20;4.80;;;;;;;29.40;47.92;100465.28;4919659;28;70500;-37
2023/08/30 06:49:18;;;;;;;5.78;4.78;;;;;;;29.31;47.86;100463.91;4915523;28;66917;-43
2023/08/30 06:51:49;;;;;;;8.18;4.68;;;;;;;29.36;47.49;100469.47;4914201;28;69010;-37
2023/08/30 06:54:19;;;;;;;4.65;4.35;;;;;;;29.36;47.15;100458.66;4916418;28;66408;-38
2023/08/30 06:57:01;;;;;;;10.75;4.85;;;;;;;29.33;47.23;100459.06;4912535;28;69858;-38
2023/08/30 06:59:31;;;;;;;5.60;5.10;;;;;;;29.39;48.40;100469.03;4896925;28;65793;-37
2023/08/30 07:02:02;;;;;;;7.65;4.78;;;;;;;29.49;49.34;100463.13;4911369;28;69889;-38
2023/08/30 07:04:32;;;;;;;5.30;4.90;;;;;;;29.57;50.03;100453.91;4910061;28;66887;-37
2023/08/30 07:07:03;;;;;;;5.60;5.07;;;;;;;29.61;51.14;100444.28;4911534;28;70060;-38
2023/08/30 07:09:33;;;;;;;5.07;4.57;;;;;;;29.74;51.54;100449.59;4896613;28;65194;-39
2023/08/30 07:12:03;;;;;;;11.82;5.63;;;;;;;29.86;60.51;100446.16;4920172;28;70248;-39
2023/08/30 07:14:34;;;;;;;9.25;6.93;;;;;;;29.83;63.93;100409.59;4905949;28;66183;-38
2023/08/30 07:17:04;;;;;;;6.72;6.03;;;;;;;30.13;65.34;100444.84;4914948;28;70814;-38
2023/08/30 07:19:34;;;;;;;7.07;6.55;;;;;;;30.20;66.28;100445.59;4908789;28;66763;-38
2023/08/30 07:22:04;;;;;;;6.95;6.43;;;;;;;30.34;66.73;100454.41;4912080;28;70224;-40
2023/08/30 07:24:35;;;;;;;7.65;6.95;;;;;;;30.43;67.23;100447.63;4894203;29;66113;-40
2023/08/30 07:27:05;;;;;;;7.07;6.47;;;;;;;30.50;67.31;100447.53;4916872;28;70015;-39
2023/08/30 07:29:35;;;;;;;8.55;6.13;;;;;;;30.59;67.56;100451.59;4896557;28;66451;-38
2023/08/30 07:32:06;;;;;;;6.85;6.38;;;;;;;30.63;67.44;100460.91;4919523;28;70123;-39
2023/08/30 07:34:36;;;;;;;7.10;6.50;;;;;;;30.59;67.88;100451.59;4918800;28;66862;-42
2023/08/30 07:37:20;;;;;;;7.47;6.00;;;;;;;30.41;68.48;100427.25;4905709;28;70032;-40
2023/08/30 07:39:52;;;;;;;8.07;5.97;;;;;;;30.74;68.48;100470.13;4907241;28;66767;-37
2023/08/30 07:42:22;;;;;;;;;;;;;;;30.70;69.32;100472.47;4911874;28;70377;-38
2023/08/30 07:44:52;;;;;;;8.95;6.47;;;;;;;30.87;68.95;100467.28;4911753;28;67102;-39
2023/08/30 07:47:25;;;;;;;8.18;5.90;;;;;;;30.90;68.42;100453.28;4914516;28;70132;-39
2023/08/30 07:49:55;;;;;;;6.47;5.85;;;;;;;30.95;68.95;100457.97;4886181;28;65360;-39
2023/08/30 07:52:25;;;;;;;6.07;5.68;;;;;;;30.98;69.23;100446.72;4913593;28;70418;-38
2023/08/30 07:55:14;;;;;;;6.57;5.35;;;;;;;31.00;69.19;100451.88;4919264;28;65571;-39
2023/08/30 07:57:44;;;;;;;6.32;5.80;;;;;;;31.05;69.27;100449.31;4910765;28;70146;-39
2023/08/30 08:00:14;;;;;;;6.18;5.68;;;;;;;31.07;69.40;100439.88;4908625;28;66464;-39
2023/08/30 08:02:46;;;;;;;10.73;5.78;;;;;;;31.03;69.71;100422.44;4892350;28;69255;-39
2023/08/30 08:05:17;;;;;;;6.15;5.40;;;;;;;31.10;69.62;100425.88;4911804;28;65893;-40
2023/08/30 08:07:53;;;;;;;7.35;5.47;;;;;;;30.75;69.39;100362.66;4908053;28;70059;-40
2023/08/30 08:10:23;;;;;;;5.45;4.75;;;;;;;31.15;69.30;100414.34;4895536;28;66680;-39
2023/08/30 08:12:53;;;;;;;6.68;5.13;;;;;;;31.10;69.92;100387.94;4905227;28;69361;-41
2023/08/30 08:15:25;;;;;;;5.60;5.10;;;;;;;30.99;69.98;100363.56;4904909;28;67183;-39
2023/08/30 08:17:55;;;;;;;5.88;5.38;;;;;;;31.16;70.46;100376.16;4909808;28;70911;-40
2023/08/30 08:20:26;;;;;;;6.22;5.63;;;;;;;31.16;70.01;100370.75;4916257;28;66016;-40
2023/08/30 08:22:56;;;;;;;5.53;5.07;;;;;;;31.15;70.14;100382.66;4911821;28;69700;-38
2023/08/30 08:25:27;;;;;;;5.63;4.88;;;;;;;31.24;70.21;100404.81;4911040;28;66101;-39
2023/08/30 08:27:57;;;;;;;5.07;4.72;;;;;;;31.27;70.41;100414.34;4913611;28;69783;-39
2023/08/30 08:30:27;;;;;;;5.50;4.93;;;;;;;31.25;70.84;100438.16;4914066;28;65081;-38
2023/08/30 08:32:58;;;;;;;6.75;5.25;;;;;;;30.90;70.66;100384.75;4912675;28;70006;-39
2023/08/30 08:35:29;;;;;;;10.45;5.50;;;;;;;31.25;70.78;100454.41;4905494;28;65969;-39
2023/08/30 08:37:59;;;;;;;5.78;5.28;;;;;;;31.27;71.09;100465.84;4900131;28;69689;-40
2023/08/30 08:40:30;;;;;;;6.55;5.60;;;;;;;31.27;71.17;100469.38;4912228;28;66326;-41
2023/08/30 08:43:12;;;;;;;5.33;4.93;;;;;;;31.30;71.02;100468.09;4916554;28;69776;-41
2023/08/30 08:45:44;;;;;;;5.10;4.63;;;;;;;31.26;71.15;100466.88;4912023;28;65599;-41
2023/08/30 08:48:15;;;;;;;5.15;4.68;;;;;;;31.31;71.11;100464.31;4904083;28;70492;-39
2023/08/30 08:50:46;;;;;;;7.82;4.82;;;;;;;31.32;71.17;100455.97;4890249;28;66136;-42
2023/08/30 08:53:16;;;;;;;5.35;4.80;;;;;;;31.33;71.09;100467.63;4909885;28;70385;-39
2023/08/30 08:55:47;;;;;;;5.22;4.70;;;;;;;31.34;71.68;100469.25;4904805;28;67022;-39
2023/08/30 08:58:17;;;;;;;5.15;4.22;;;;;;;31.27;71.38;100463.94;4891481;28;71200;-39
2023/08/30 09:00:48;;;;;;;4.95;4.45;;;;;;;31.33;71.76;100476.56;4919379;28;66677;-39
2023/08/30 09:03:19;;;;;;;5.07;4.68;;;;;;;31.26;71.23;100472.31;4920308;28;69485;-39
2023/08/30 09:05:51;;;;;;;5.13;4.72;;;;;;;31.34;71.89;100516.19;4883669;28;65747;-38
2023/08/30 09:08:22;;;;;;;5.03;4.63;;;;;;;31.36;71.56;100537.63;4913357;28;69966;-39
2023/08/30 09:10:52;;;;;;;4.90;4.50;;;;;;;31.37;71.63;100555.53;4919318;28;67246;-36
2023/08/30 09:13:22;;;;;;;5.15;4.68;;;;;;;31.35;71.50;100547.63;4916729;28;69549;-39
2023/08/30 09:15:52;;;;;;;4.72;4.32;;;;;;;31.37;71.28;100544.69;4916373;28;66753;-38
2023/08/30 09:18:27;;;;;;;5.10;4.70;;;;;;;31.37;71.79;100539.28;4920321;28;69312;-37
2023/08/30 09:21:11;;;;;;;5.35;4.85;;;;;;;31.30;71.82;100527.69;4913059;28;66597;-38
2023/08/30 09:23:41;;;;;;;5.15;4.75;;;;;;;31.34;71.94;100516.19;4914841;28;70356;-39
2023/08/30 09:26:11;;;;;;;5.32;4.57;;;;;;;31.32;72.12;100512.03;4912354;28;65494;-39
2023/08/30 09:28:44;;;;;;;5.22;4.28;;;;;;;31.28;72.42;100503.53;4905967;28;70230;-38
2023/08/30 09:31:21;;;;;;;6.15;3.95;;;;;;;31.29;72.24;100516.03;4908771;28;65782;-38
2023/08/30 09:33:53;;;;;;;6.65;4.30;;;;;;;31.31;71.35;100502.25;4914099;28;70243;-38
2023/08/30 09:36:23;;;;;;;;;;;;;;;31.12;72.80;100515.88;4888601;28;65170;-39
2023/08/30 09:38:53;;;;;;;3.70;3.40;;;;;;;31.26;72.20;100493.97;4888429;28;69857;-40
2023/08/30 09:41:23;;;;;;;4.07;3.72;;;;;;;31.28;72.61;100508.13;4907690;28;65742;-39
2023/08/30 09:43:53;;;;;;;4.75;3.88;;;;;;;31.32;72.57;100503.91;4923975;28;70331;-39
2023/08/30 09:46:44;;;;;;;3.53;3.22;;;;;;;31.30;72.53;100506.03;4914666;28;65470;-40
2023/08/30 09:49:23;;;;;;;4.10;3.80;;;;;;;31.24;72.70;100477.97;4911196;28;70128;-37
2023/08/30 09:51:55;;;;;;;4.53;3.35;;;;;;;31.26;72.57;100489.41;4911760;28;66030;-39
2023/08/30 09:54:28;;;;;;;3.45;3.13;;;;;;;31.26;72.84;100488.56;4906091;28;69816;-39
2023/08/30 09:57:01;;;;;;;3.47;3.00;;;;;;;31.26;72.91;100483.13;4910912;28;65203;-39
2023/08/30 09:59:32;;;;;;;4.00;3.00;;;;;;;31.25;72.59;100476.09;4911262;28;69467;-40
2023/08/30 10:02:04;;;;;;;4.03;3.10;;;;;;;31.24;73.22;100474.44;4916695;28;65898;-39
2023/08/30 10:04:38;;;;;;;3.40;3.03;;;;;;;30.87;72.88;100407.69;4900666;28;69386;-39
2023/08/30 10:07:11;;;;;;;3.30;3.00;;;;;;;31.24;73.41;100479.84;4912952;28;66700;-39
2023/08/30 10:09:42;;;;;;;3.63;2.92;;;;;;;31.22;73.05;100479.25;4911047;28;70172;-40
2023/08/30 10:12:33;;;;;;;4.95;2.70;;;;;;;31.24;73.14;100496.13;4906085;28;66651;-39
2023/08/30 10:15:03;;;;;;;3.80;3.50;;;;;;;31.09;73.07;100478.41;4913761;28;70485;-39
2023/08/30 10:17:37;;;;;;;3.60;3.22;;;;;;;31.14;73.28;100492.06;4910791;28;66601;-38
2023/08/30 10:20:08;;;;;;;3.63;3.33;;;;;;;31.22;73.30;100509.88;4912863;28;68546;-39
2023/08/30 10:22:40;;;;;;;3.80;3.40;;;;;;;30.73;73.78;100436.81;4915438;28;65798;-40
2023/08/30 10:25:16;;;;;;;6.45;3.97;;;;;;;30.82;74.32;100459.00;4910191;28;69730;-41
2023/08/30 10:27:48;;;;;;;4.90;4.50;;;;;;;31.14;74.65;100524.56;4909572;28;66823;-41
2023/08/30 10:30:21;;;;;;;9.75;4.82;;;;;;;30.83;74.70;100476.06;4915438;28;69196;-40
2023/08/30 10:32:51;;;;;;;7.13;5.75;;;;;;;31.23;75.01;100548.63;4896365;28;66458;-40
2023/08/30 10:35:21;;;;;;;6.82;6.13;;;;;;;31.23;75.32;100559.47;4911697;28;70016;-39
2023/08/30 10:37:56;;;;;;;14.00;6.10;;;;;;;31.21;75.06;100550.78;4913044;28;66261;-41
2023/08/30 10:40:26;;;;;;;8.23;6.15;;;;;;;31.21;75.66;100553.47;4916749;28;70292;-40
2023/08/30 10:43:00;;;;;;;7.88;6.22;;;;;;;31.26;75.55;100577.97;4921110;28;66121;-40
2023/08/30 10:45:30;;;;;;;13.13;6.65;;;;;;;31.25;75.81;100584.47;4913181;28;70251;-39
2023/08/30 10:48:00;;;;;;;6.53;6.03;;;;;;;31.26;75.81;100586.13;4918837;28;66460;-42
2023/08/30 10:50:33;;;;;;;12.00;7.07;;;;;;;30.94;75.98;100537.59;4908200;28;69710;-40
2023/08/30 10:53:12;;;;;;;7.38;6.57;;;;;;;31.25;75.58;100584.47;4914883;28;65968;-40
2023/08/30 10:56:03;;;;;;;6.78;6.15;;;;;;;31.20;75.86;100593.28;4913342;28;70322;-38
2023/08/30 10:58:43;;;;;;;14.40;6.97;;;;;;;31.23;76.46;100592.00;4910134;28;66817;-39
2023/08/30 11:01:15;;;;;;;6.55;5.90;;;;;;;30.82;76.30;100531.31;4914840;28;69801;-40
2023/08/30 11:03:45;;;;;;;6.65;6.10;;;;;;;31.23;76.45;100603.69;4892480;28;66296;-40
2023/08/30 11:06:17;;;;;;;8.98;6.18;;;;;;;31.24;76.65;100604.50;4911035;28;69485;-39
2023/08/30 11:08:49;;;;;;;7.78;5.95;;;;;;;31.23;76.31;100610.97;4915817;28;65132;-40
2023/08/30 11:11:20;;;;;;;11.85;6.68;;;;;;;31.24;77.13;100615.34;4902668;28;69229;-40
2023/08/30 11:13:50;;;;;;;7.10;6.30;;;;;;;31.19;77.44;100612.50;4914417;28;65289;-39
2023/08/30 11:16:23;;;;;;;6.57;6.00;;;;;;;31.24;76.83;100615.34;4904007;28;70136;-41
2023/08/30 11:18:53;;;;;;;6.40;5.80;;;;;;;31.20;75.41;100630.38;4912634;28;66608;-40
2023/08/30 11:21:23;;;;;;;5.68;5.28;;;;;;;31.21;74.98;100621.22;4919431;28;68775;-40
2023/08/30 11:23:53;;;;;;;5.03;4.60;;;;;;;31.23;74.48;100632.63;4918671;28;65596;-39
2023/08/30 11:26:24;;;;;;;6.40;4.38;;;;;;;31.22;74.22;100628.28;4919812;28;70477;-39
2023/08/30 11:28:54;;;;;;;5.68;5.20;;;;;;;31.27;74.38;100636.56;4913004;28;66132;-39
2023/08/30 11:31:27;;;;;;;5.22;4.72;;;;;;;31.29;74.27;100639.88;4909985;28;70475;-42
2023/08/30 11:33:59;;;;;;;4.93;4.63;;;;;;;31.29;74.27;100645.31;4922094;28;66681;-41
2023/08/30 11:36:31;;;;;;;5.63;5.22;;;;;;;31.27;73.87;100644.69;4924115;28;69824;-39
2023/08/30 11:39:01;;;;;;;6.07;5.55;;;;;;;31.30;73.98;100638.81;4923987;28;66759;-40
2023/08/30 11:42:05;;;;;;;5.80;5.30;;;;;;;31.26;73.53;100640.31;4920473;28;70159;-40
2023/08/30 11:44:46;;;;;;;7.50;6.90;;;;;;;31.26;75.48;100652.00;4916245;28;65596;-40